Time;durP1;ratioP1;P1;durP2;ratioP2;P2;SDS_P1;SDS_P2;PMS_P1;PMS_P2;Temp;Humidity;BMP_temperature;BMP_pressure;BME280_temperature;BME280_humidity;BME280_pressure;Samples;Min_cycle;Max_cycle;Signal;HPM_P1;HPM_P2
2023/03/12 00:01:18;;;;;;;3.37;1.70;;;;;;;;;;5058854;28;20218;-76
2023/03/12 00:03:43;;;;;;;3.77;2.00;;;;;;;;;;5058310;28;20552;-77
2023/03/12 00:06:08;;;;;;;4.03;2.57;;;;;;;;;;5056514;28;20435;-75
2023/03/12 00:08:34;;;;;;;2.80;2.10;;;;;;;;;;5056123;28;20235;-74
2023/03/12 00:10:59;;;;;;;7.13;3.03;;;;;;;;;;5054338;28;20176;-75
2023/03/12 00:13:24;;;;;;;7.13;2.13;;;;;;;;;;5054502;28;20184;-75
2023/03/12 00:15:50;;;;;;;5.13;2.20;;;;;;;;;;5059835;28;20198;-75
2023/03/12 00:18:15;;;;;;;3.10;1.93;;;;;;;;;;5058281;28;20182;-75
2023/03/12 00:20:40;;;;;;;4.07;1.90;;;;;;;;;;5056399;28;20203;-75
2023/03/12 00:23:06;;;;;;;3.70;2.10;;;;;;;;;;5058641;28;20172;-75
2023/03/12 00:25:31;;;;;;;3.63;1.57;;;;;;;;;;5060605;28;20200;-75
2023/03/12 00:27:57;;;;;;;3.30;2.10;;;;;;;;;;5056871;28;20424;-75
2023/03/12 00:30:22;;;;;;;4.50;2.10;;;;;;;;;;5055447;28;20654;-75
2023/03/12 00:32:47;;;;;;;3.00;1.57;;;;;;;;;;5057389;28;20210;-75
2023/03/12 00:35:13;;;;;;;4.20;2.03;;;;;;;;;;5058039;28;20265;-75
2023/03/12 00:37:38;;;;;;;5.47;1.90;;;;;;;;;;5056785;28;20185;-76
2023/03/12 00:40:04;;;;;;;4.63;1.83;;;;;;;;;;5053696;28;20274;-74
2023/03/12 00:42:30;;;;;;;3.30;1.97;;;;;;;;;;5056422;28;20560;-75
2023/03/12 00:44:55;;;;;;;4.67;1.67;;;;;;;;;;5055314;28;20457;-75
2023/03/12 00:47:20;;;;;;;2.80;1.83;;;;;;;;;;5058951;28;20304;-75
2023/03/12 00:49:46;;;;;;;4.43;2.20;;;;;;;;;;5054602;28;20175;-74
2023/03/12 00:52:11;;;;;;;3.60;2.00;;;;;;;;;;5050854;28;20187;-74
2023/03/12 00:54:36;;;;;;;4.27;1.90;;;;;;;;;;5049685;28;20747;-75
2023/03/12 00:57:02;;;;;;;7.17;2.13;;;;;;;;;;5048796;28;20597;-76
2023/03/12 00:59:27;;;;;;;3.90;1.60;;;;;;;;;;5040938;28;20184;-75
2023/03/12 01:01:52;;;;;;;4.50;1.70;;;;;;;;;;5047600;28;20207;-75
2023/03/12 01:04:17;;;;;;;1.70;1.53;;;;;;;;;;5039796;28;20291;-75
2023/03/12 01:06:43;;;;;;;4.13;1.80;;;;;;;;;;5039135;28;20180;-76
2023/03/12 01:09:08;;;;;;;2.80;1.80;;;;;;;;;;5046097;28;20262;-75
2023/03/12 01:11:34;;;;;;;6.27;2.03;;;;;;;;;;5051787;28;20179;-76
2023/03/12 01:13:59;;;;;;;2.63;1.93;;;;;;;;;;5048764;28;20676;-76
2023/03/12 01:16:29;;;;;;;3.27;1.80;;;;;;;;;;5048403;28;20820;-76
2023/03/12 01:18:55;;;;;;;3.17;1.30;;;;;;;;;;5043827;28;20710;-75
2023/03/12 01:21:20;;;;;;;2.90;1.57;;;;;;;;;;5042773;28;20867;-75
2023/03/12 01:23:45;;;;;;;4.20;1.80;;;;;;;;;;5048779;28;21006;-74
2023/03/12 01:26:11;;;;;;;1.83;1.60;;;;;;;;;;5049673;28;20257;-76
2023/03/12 01:28:36;;;;;;;5.23;2.00;;;;;;;;;;5042045;28;20179;-75
2023/03/12 01:31:05;;;;;;;5.00;1.80;;;;;;;;;;5050479;28;20657;-75
2023/03/12 01:33:30;;;;;;;4.63;1.90;;;;;;;;;;5052978;28;20191;-75
2023/03/12 01:35:56;;;;;;;7.20;1.43;;;;;;;;;;5045556;28;20468;-75
2023/03/12 01:38:21;;;;;;;5.10;1.47;;;;;;;;;;5045007;28;20180;-75
2023/03/12 01:40:46;;;;;;;3.43;1.40;;;;;;;;;;5046181;28;20337;-75
2023/03/12 01:43:44;;;;;;;2.50;1.73;;;;;;;;;;5053154;28;20259;-75
2023/03/12 01:46:27;;;;;;;3.30;1.80;;;;;;;;;;5005586;28;20215;-74
2023/03/12 01:48:58;;;;;;;5.87;1.70;;;;;;;;;;5046424;28;20932;-75
2023/03/12 01:51:29;;;;;;;5.70;1.80;;;;;;;;;;5047811;28;20446;-75
2023/03/12 01:53:56;;;;;;;4.30;1.80;;;;;;;;;;5041158;28;20430;-75
2023/03/12 01:56:24;;;;;;;3.07;1.60;;;;;;;;;;5050459;28;20833;-74
2023/03/12 01:58:51;;;;;;;2.17;1.97;;;;;;;;;;5044208;28;20532;-74
2023/03/12 02:01:17;;;;;;;5.00;1.90;;;;;;;;;;5044783;28;20465;-74
2023/03/12 02:03:44;;;;;;;7.83;2.37;;;;;;;;;;5048891;28;20427;-74
2023/03/12 02:06:14;;;;;;;6.10;1.97;;;;;;;;;;5045504;28;20448;-75
2023/03/12 02:08:44;;;;;;;5.77;1.67;;;;;;;;;;5046341;28;20487;-75
2023/03/12 02:11:09;;;;;;;8.73;2.00;;;;;;;;;;5051160;28;20453;-75
2023/03/12 02:13:35;;;;;;;9.20;2.30;;;;;;;;;;5040966;28;21008;-75
2023/03/12 02:16:01;;;;;;;2.50;1.70;;;;;;;;;;5052504;28;20889;-75
2023/03/12 02:18:26;;;;;;;2.60;1.73;;;;;;;;;;5040529;28;20183;-75
2023/03/12 02:20:55;;;;;;;4.50;2.23;;;;;;;;;;5045961;28;20221;-75
2023/03/12 02:23:25;;;;;;;6.57;1.97;;;;;;;;;;5042387;28;20180;-75
2023/03/12 02:25:51;;;;;;;4.97;2.20;;;;;;;;;;5040575;28;20975;-75
2023/03/12 02:28:18;;;;;;;3.33;1.90;;;;;;;;;;5039894;28;20426;-75
2023/03/12 02:30:45;;;;;;;3.63;1.90;;;;;;;;;;5047818;28;20425;-75
2023/03/12 02:33:10;;;;;;;5.20;2.30;;;;;;;;;;5045875;28;20426;-75
2023/03/12 02:35:36;;;;;;;8.70;2.13;;;;;;;;;;5051534;28;20839;-75
2023/03/12 02:38:01;;;;;;;4.37;2.30;;;;;;;;;;5048332;28;20183;-75
2023/03/12 02:40:36;;;;;;;4.60;2.00;;;;;;;;;;5052272;28;20214;-75
2023/03/12 02:43:02;;;;;;;2.87;2.10;;;;;;;;;;5048045;28;20186;-74
2023/03/12 02:45:28;;;;;;;6.77;3.13;;;;;;;;;;5045770;28;20441;-74
2023/03/12 02:47:54;;;;;;;2.93;2.00;;;;;;;;;;5046657;28;20526;-74
2023/03/12 02:50:19;;;;;;;3.57;2.00;;;;;;;;;;5046419;28;20477;-75
2023/03/12 02:52:44;;;;;;;2.40;1.80;;;;;;;;;;5050699;28;20234;-74
2023/03/12 02:55:09;;;;;;;2.67;2.20;;;;;;;;;;5049689;28;20210;-74
2023/03/12 02:57:36;;;;;;;3.53;1.73;;;;;;;;;;5047824;28;20638;-74
2023/03/12 03:00:05;;;;;;;2.87;2.20;;;;;;;;;;5048354;28;20188;-74
2023/03/12 03:02:30;;;;;;;3.60;2.13;;;;;;;;;;5051395;28;20571;-75
2023/03/12 03:04:55;;;;;;;4.50;2.23;;;;;;;;;;5052715;28;20990;-75
2023/03/12 03:07:20;;;;;;;3.70;1.70;;;;;;;;;;5047968;28;20190;-74
2023/03/12 03:09:46;;;;;;;7.53;2.47;;;;;;;;;;5051889;28;20554;-74
2023/03/12 03:12:11;;;;;;;8.70;2.10;;;;;;;;;;5050051;28;20242;-75
2023/03/12 03:14:36;;;;;;;2.60;1.60;;;;;;;;;;5054789;28;20559;-74
2023/03/12 03:17:01;;;;;;;3.67;2.10;;;;;;;;;;5049918;28;20180;-74
2023/03/12 03:19:27;;;;;;;2.50;1.87;;;;;;;;;;5043175;28;20202;-74
2023/03/12 03:21:52;;;;;;;3.60;1.90;;;;;;;;;;5050538;28;20207;-75
2023/03/12 03:24:17;;;;;;;2.50;1.90;;;;;;;;;;5047996;28;20207;-75
2023/03/12 03:26:43;;;;;;;7.50;1.87;;;;;;;;;;5050696;28;20244;-75
2023/03/12 03:29:08;;;;;;;4.27;2.03;;;;;;;;;;5030487;28;20183;-75
2023/03/12 03:31:33;;;;;;;4.57;2.10;;;;;;;;;;5052215;28;20266;-75
2023/03/12 03:33:59;;;;;;;3.67;1.77;;;;;;;;;;5044328;28;20178;-75
2023/03/12 03:36:24;;;;;;;4.33;2.50;;;;;;;;;;5041434;28;20615;-74
2023/03/12 03:38:49;;;;;;;3.10;1.97;;;;;;;;;;5039257;28;20199;-75
2023/03/12 03:41:19;;;;;;;2.57;1.40;;;;;;;;;;5046309;28;20208;-75
2023/03/12 03:43:44;;;;;;;3.63;1.70;;;;;;;;;;5053420;22;20243;-70
2023/03/12 03:46:10;;;;;;;2.30;1.87;;;;;;;;;;5043649;28;20438;-70
2023/03/12 03:48:35;;;;;;;4.13;2.10;;;;;;;;;;5038459;28;20187;-70
2023/03/12 03:51:01;;;;;;;3.13;1.63;;;;;;;;;;5041962;28;20512;-70
2023/03/12 03:53:26;;;;;;;4.03;2.27;;;;;;;;;;5042428;28;20556;-70
2023/03/12 03:55:52;;;;;;;3.60;2.20;;;;;;;;;;5041027;28;20494;-70
2023/03/12 03:58:17;;;;;;;3.83;1.73;;;;;;;;;;5041063;28;20276;-71
2023/03/12 04:00:43;;;;;;;4.00;1.93;;;;;;;;;;5035966;28;20207;-70
2023/03/12 04:03:08;;;;;;;4.80;1.90;;;;;;;;;;5037586;28;20739;-70
2023/03/12 04:05:33;;;;;;;4.60;2.00;;;;;;;;;;5044290;28;20433;-70
2023/03/12 04:08:02;;;;;;;4.43;2.13;;;;;;;;;;5037992;28;20668;-71
2023/03/12 04:10:27;;;;;;;2.63;2.03;;;;;;;;;;5044263;28;20179;-70
2023/03/12 04:12:53;;;;;;;2.80;2.17;;;;;;;;;;5033662;28;20832;-70
2023/03/12 04:15:18;;;;;;;3.43;2.00;;;;;;;;;;5041471;28;20509;-70
2023/03/12 04:17:44;;;;;;;4.17;2.30;;;;;;;;;;5035644;28;20254;-70
2023/03/12 04:20:10;;;;;;;4.23;2.00;;;;;;;;;;5037199;28;21613;-70
2023/03/12 04:22:35;;;;;;;3.70;2.37;;;;;;;;;;5042129;28;20215;-70
2023/03/12 04:25:00;;;;;;;3.30;2.27;;;;;;;;;;5040384;28;20772;-70
2023/03/12 04:27:26;;;;;;;7.30;2.30;;;;;;;;;;5033534;28;20177;-70
2023/03/12 04:29:51;;;;;;;2.23;1.70;;;;;;;;;;5042166;28;20784;-70
2023/03/12 04:32:16;;;;;;;3.60;2.00;;;;;;;;;;5040757;28;20187;-70
2023/03/12 04:34:42;;;;;;;4.20;1.80;;;;;;;;;;5036155;28;20578;-70
2023/03/12 04:37:10;;;;;;;2.40;2.20;;;;;;;;;;5036939;28;20651;-71
2023/03/12 04:39:35;;;;;;;5.13;2.67;;;;;;;;;;5038975;28;20210;-70
2023/03/12 04:42:00;;;;;;;3.10;2.43;;;;;;;;;;5038510;28;20591;-70
2023/03/12 04:44:26;;;;;;;3.70;1.67;;;;;;;;;;5041880;28;20320;-70
2023/03/12 04:46:51;;;;;;;3.37;2.00;;;;;;;;;;5044942;28;20178;-70
2023/03/12 04:49:16;;;;;;;2.73;2.23;;;;;;;;;;5042700;28;20546;-70
2023/03/12 04:51:42;;;;;;;2.23;1.80;;;;;;;;;;5035496;28;20200;-70
2023/03/12 04:54:07;;;;;;;3.63;2.00;;;;;;;;;;5038308;28;20214;-70
2023/03/12 04:56:32;;;;;;;3.67;2.23;;;;;;;;;;5039452;28;20191;-70
2023/03/12 04:58:58;;;;;;;2.53;1.73;;;;;;;;;;5044600;28;20186;-71
2023/03/12 05:01:24;;;;;;;3.80;2.10;;;;;;;;;;5048023;28;20208;-70
2023/03/12 05:03:50;;;;;;;2.47;1.80;;;;;;;;;;5044135;28;20287;-70
2023/03/12 05:06:15;;;;;;;2.80;2.30;;;;;;;;;;5049508;28;20513;-71
2023/03/12 05:08:41;;;;;;;2.40;2.17;;;;;;;;;;5048553;28;20645;-70
2023/03/12 05:11:06;;;;;;;3.70;2.20;;;;;;;;;;5042629;28;20183;-71
2023/03/12 05:13:31;;;;;;;4.20;1.87;;;;;;;;;;5052894;28;20217;-70
2023/03/12 05:15:56;;;;;;;4.87;2.27;;;;;;;;;;5046748;28;20187;-70
2023/03/12 05:18:22;;;;;;;5.20;2.20;;;;;;;;;;5046475;28;20253;-70
2023/03/12 05:20:56;;;;;;;6.27;2.10;;;;;;;;;;5042661;28;20208;-70
2023/03/12 05:23:21;;;;;;;3.90;2.10;;;;;;;;;;5041939;28;20313;-70
2023/03/12 05:25:47;;;;;;;8.53;2.37;;;;;;;;;;5047411;28;20517;-70
2023/03/12 05:28:12;;;;;;;4.10;2.10;;;;;;;;;;5044810;28;20180;-70
2023/03/12 05:30:38;;;;;;;3.50;2.40;;;;;;;;;;5045544;28;20304;-70
2023/03/12 05:33:03;;;;;;;4.23;2.20;;;;;;;;;;5044490;28;20589;-70
2023/03/12 05:35:28;;;;;;;5.03;2.40;;;;;;;;;;5041638;28;20186;-70
2023/03/12 05:37:54;;;;;;;4.07;2.33;;;;;;;;;;5046991;28;20696;-70
2023/03/12 05:40:19;;;;;;;4.40;2.40;;;;;;;;;;5048824;28;20444;-70
2023/03/12 05:42:44;;;;;;;3.43;2.10;;;;;;;;;;5043837;28;20723;-70
2023/03/12 05:45:09;;;;;;;3.50;2.47;;;;;;;;;;5047767;28;20175;-70
2023/03/12 05:47:35;;;;;;;4.40;2.33;;;;;;;;;;5046640;28;20713;-70
2023/03/12 05:50:00;;;;;;;3.17;2.00;;;;;;;;;;5052814;28;20252;-70
2023/03/12 05:52:25;;;;;;;4.40;2.23;;;;;;;;;;5047911;28;20187;-70
2023/03/12 05:54:51;;;;;;;3.30;2.17;;;;;;;;;;5047759;28;20186;-70
2023/03/12 05:57:16;;;;;;;5.00;2.97;;;;;;;;;;5047119;28;20265;-70
2023/03/12 05:59:42;;;;;;;7.43;3.03;;;;;;;;;;5050278;28;20308;-70
2023/03/12 06:02:07;;;;;;;4.43;2.37;;;;;;;;;;5048804;28;20191;-70
2023/03/12 06:04:32;;;;;;;3.03;2.00;;;;;;;;;;5049601;28;20677;-70
2023/03/12 06:06:57;;;;;;;4.50;2.60;;;;;;;;;;5041274;28;20179;-70
2023/03/12 06:09:23;;;;;;;3.37;2.40;;;;;;;;;;5045873;28;20557;-70
2023/03/12 06:11:48;;;;;;;5.67;2.67;;;;;;;;;;5041800;28;20183;-70
2023/03/12 06:14:13;;;;;;;4.30;2.30;;;;;;;;;;5043721;28;20227;-70
2023/03/12 06:16:39;;;;;;;4.77;2.70;;;;;;;;;;5046541;28;20253;-70
2023/03/12 06:19:04;;;;;;;3.53;2.70;;;;;;;;;;5046377;28;20183;-70
2023/03/12 06:21:33;;;;;;;4.50;2.80;;;;;;;;;;5054482;28;21057;-70
2023/03/12 06:23:58;;;;;;;3.10;2.70;;;;;;;;;;5049884;28;20582;-70
2023/03/12 06:26:24;;;;;;;3.43;2.90;;;;;;;;;;5052592;28;20426;-70
2023/03/12 06:28:50;;;;;;;4.00;2.93;;;;;;;;;;5043142;28;20252;-70
2023/03/12 06:31:16;;;;;;;4.83;3.10;;;;;;;;;;5045552;28;20245;-70
2023/03/12 06:33:41;;;;;;;3.50;2.60;;;;;;;;;;5042346;28;20863;-71
2023/03/12 06:36:07;;;;;;;5.40;2.77;;;;;;;;;;5044698;28;20968;-70
2023/03/12 06:38:32;;;;;;;5.10;3.40;;;;;;;;;;5054411;28;20274;-70
2023/03/12 06:41:05;;;;;;;3.90;2.87;;;;;;;;;;5052071;28;20457;-70
2023/03/12 06:43:31;;;;;;;4.67;2.67;;;;;;;;;;5056442;28;20685;-70
2023/03/12 06:45:57;;;;;;;5.53;3.50;;;;;;;;;;5054159;28;20467;-69
2023/03/12 06:48:23;;;;;;;7.20;3.63;;;;;;;;;;5052738;28;20438;-70
2023/03/12 06:50:49;;;;;;;6.20;3.27;;;;;;;;;;5053284;28;20786;-70
2023/03/12 06:53:14;;;;;;;7.93;3.50;;;;;;;;;;5052685;28;20464;-69
2023/03/12 06:55:40;;;;;;;8.93;3.00;;;;;;;;;;5050529;28;20190;-70
2023/03/12 06:58:05;;;;;;;4.07;3.53;;;;;;;;;;5049757;28;20184;-70
2023/03/12 07:00:31;;;;;;;7.50;3.80;;;;;;;;;;5047419;28;20203;-70
2023/03/12 07:02:56;;;;;;;4.47;2.80;;;;;;;;;;5050401;28;20622;-70
2023/03/12 07:05:24;;;;;;;4.80;3.33;;;;;;;;;;5054411;28;20434;-70
2023/03/12 07:07:50;;;;;;;6.40;3.80;;;;;;;;;;5051661;28;20180;-70
2023/03/12 07:10:16;;;;;;;5.80;3.17;;;;;;;;;;5049611;28;20434;-70
2023/03/12 07:12:42;;;;;;;6.83;3.03;;;;;;;;;;5052163;28;20206;-70
2023/03/12 07:15:07;;;;;;;7.30;2.83;;;;;;;;;;5049167;28;20461;-70
2023/03/12 07:17:32;;;;;;;4.00;2.80;;;;;;;;;;5043362;28;20179;-70
2023/03/12 07:19:58;;;;;;;4.70;3.27;;;;;;;;;;5041302;28;20315;-70
2023/03/12 07:22:23;;;;;;;9.03;3.23;;;;;;;;;;5044658;28;20211;-70
2023/03/12 07:24:50;;;;;;;7.97;2.80;;;;;;;;;;5047191;28;20179;-70
2023/03/12 07:27:15;;;;;;;3.87;3.07;;;;;;;;;;5051685;28;20187;-70
2023/03/12 07:29:40;;;;;;;6.03;3.37;;;;;;;;;;5048135;28;20429;-71
2023/03/12 07:32:05;;;;;;;3.43;2.60;;;;;;;;;;5053282;28;20179;-70
2023/03/12 07:34:31;;;;;;;5.97;3.53;;;;;;;;;;5055893;28;20661;-70
2023/03/12 07:36:56;;;;;;;3.80;2.73;;;;;;;;;;5059223;28;20696;-71
2023/03/12 07:39:22;;;;;;;3.83;2.80;;;;;;;;;;5060477;28;20191;-71
2023/03/12 07:41:47;;;;;;;9.10;3.40;;;;;;;;;;5060579;28;20578;-70
2023/03/12 07:44:12;;;;;;;4.97;3.03;;;;;;;;;;5054905;28;20227;-70
2023/03/12 07:46:38;;;;;;;8.23;3.47;;;;;;;;;;5060298;28;20171;-70
2023/03/12 07:49:03;;;;;;;6.57;3.40;;;;;;;;;;5055546;28;20172;-70
2023/03/12 07:51:29;;;;;;;5.03;2.80;;;;;;;;;;5055443;28;20677;-71
2023/03/12 07:53:54;;;;;;;4.17;3.00;;;;;;;;;;5057934;28;20203;-70
2023/03/12 07:56:20;;;;;;;6.63;3.93;;;;;;;;;;5034507;28;20176;-71
2023/03/12 07:58:47;;;;;;;5.17;2.97;;;;;;;;;;5050079;28;20681;-71
2023/03/12 08:01:13;;;;;;;7.13;3.43;;;;;;;;;;5046954;28;20203;-71
2023/03/12 08:03:38;;;;;;;6.10;3.70;;;;;;;;;;5060469;28;20439;-70
2023/03/12 08:06:03;;;;;;;7.10;3.47;;;;;;;;;;5054641;28;20537;-70
2023/03/12 08:08:32;;;;;;;9.43;3.57;;;;;;;;;;5054608;28;20183;-70
2023/03/12 08:11:02;;;;;;;4.37;3.60;;;;;;;;;;5049169;28;20740;-71
2023/03/12 08:13:27;;;;;;;5.50;3.37;;;;;;;;;;5039252;28;20760;-71
2023/03/12 08:15:55;;;;;;;6.33;2.90;;;;;;;;;;5043289;28;20452;-71
2023/03/12 08:18:21;;;;;;;4.53;3.50;;;;;;;;;;5030233;28;20183;-70
2023/03/12 08:20:49;;;;;;;6.63;4.50;;;;;;;;;;5059512;28;20603;-71
2023/03/12 08:23:14;;;;;;;5.57;3.80;;;;;;;;;;5055072;28;20206;-71
2023/03/12 08:25:40;;;;;;;5.43;3.80;;;;;;;;;;5048852;28;20902;-71
2023/03/12 08:28:06;;;;;;;5.67;4.50;;;;;;;;;;5051961;28;20249;-70
2023/03/12 08:30:32;;;;;;;6.63;3.30;;;;;;;;;;5064511;28;20572;-71
2023/03/12 08:32:59;;;;;;;4.53;3.30;;;;;;;;;;5056946;28;20473;-71
2023/03/12 08:35:24;;;;;;;6.20;4.50;;;;;;;;;;5053824;28;20179;-70
2023/03/12 08:37:50;;;;;;;7.53;3.73;;;;;;;;;;5053020;28;20437;-71
2023/03/12 08:40:15;;;;;;;6.50;4.03;;;;;;;;;;5051852;28;20183;-71
2023/03/12 08:42:41;;;;;;;7.40;4.43;;;;;;;;;;5044434;28;20531;-71
2023/03/12 08:45:07;;;;;;;7.10;3.83;;;;;;;;;;5043905;28;20360;-70
2023/03/12 08:47:32;;;;;;;9.17;4.07;;;;;;;;;;5044462;28;20438;-71
2023/03/12 08:49:58;;;;;;;6.80;4.80;;;;;;;;;;5044521;28;20457;-71
2023/03/12 08:52:23;;;;;;;9.83;4.63;;;;;;;;;;5053474;28;20270;-71
2023/03/12 08:54:49;;;;;;;5.47;3.93;;;;;;;;;;5037915;28;20194;-69
2023/03/12 08:57:15;;;;;;;5.10;3.60;;;;;;;;;;5041785;28;20684;-70
2023/03/12 08:59:40;;;;;;;4.97;4.10;;;;;;;;;;5042346;28;20183;-70
2023/03/12 09:02:05;;;;;;;8.10;3.53;;;;;;;;;;5046446;28;20464;-70
2023/03/12 09:04:31;;;;;;;8.63;5.47;;;;;;;;;;5044452;28;20191;-70
2023/03/12 09:06:59;;;;;;;9.97;4.40;;;;;;;;;;5039003;28;20194;-70
2023/03/12 09:09:24;;;;;;;8.90;4.87;;;;;;;;;;5033541;28;20231;-70
2023/03/12 09:11:49;;;;;;;9.33;4.33;;;;;;;;;;5028355;28;20525;-69
2023/03/12 09:14:17;;;;;;;9.30;4.90;;;;;;;;;;5047767;28;20203;-70
2023/03/12 09:16:42;;;;;;;4.37;3.67;;;;;;;;;;5043394;28;20211;-70
2023/03/12 09:19:08;;;;;;;4.73;3.77;;;;;;;;;;5035466;28;20434;-70
2023/03/12 09:21:33;;;;;;;6.50;4.13;;;;;;;;;;5045036;28;20576;-70
2023/03/12 09:23:58;;;;;;;6.50;4.00;;;;;;;;;;5039138;28;20203;-69
2023/03/12 09:26:24;;;;;;;6.10;4.33;;;;;;;;;;5026589;28;20190;-71
2023/03/12 09:28:49;;;;;;;6.57;3.37;;;;;;;;;;5029113;28;20187;-70
2023/03/12 09:31:14;;;;;;;9.87;4.10;;;;;;;;;;5046849;28;20274;-70
2023/03/12 09:33:40;;;;;;;4.77;3.63;;;;;;;;;;5033803;28;20237;-71
2023/03/12 09:36:05;;;;;;;6.13;4.50;;;;;;;;;;5035504;28;20281;-69
2023/03/12 09:38:31;;;;;;;8.37;3.90;;;;;;;;;;5034146;28;20184;-70
2023/03/12 09:40:56;;;;;;;4.90;3.73;;;;;;;;;;5033189;28;20198;-69
2023/03/12 09:43:26;;;;;;;6.60;4.10;;;;;;;;;;5040135;28;20251;-70
2023/03/12 09:45:52;;;;;;;9.33;4.57;;;;;;;;;;5044898;28;20179;-70
2023/03/12 09:48:27;;;;;;;4.63;3.40;;;;;;;;;;5028058;28;20439;-69
2023/03/12 09:50:52;;;;;;;6.67;4.33;;;;;;;;;;5038000;28;20187;-69
2023/03/12 09:53:26;;;;;;;8.77;4.53;;;;;;;;;;5043328;28;20460;-70
2023/03/12 09:55:52;;;;;;;6.83;4.30;;;;;;;;;;5030843;28;20181;-70
2023/03/12 09:58:21;;;;;;;5.00;3.90;;;;;;;;;;5040950;28;20872;-70
2023/03/12 10:00:46;;;;;;;9.47;4.97;;;;;;;;;;5044163;28;20452;-70
2023/03/12 10:03:12;;;;;;;7.47;4.20;;;;;;;;;;5047996;28;20492;-71
2023/03/12 10:05:37;;;;;;;6.13;4.90;;;;;;;;;;5049908;28;20184;-71
2023/03/12 10:08:21;;;;;;;9.47;5.60;;;;;;;;;;5043683;28;20257;-71
2023/03/12 10:11:01;;;;;;;5.50;4.60;;;;;;;;;;5050906;28;20734;-70
2023/03/12 10:13:34;;;;;;;5.37;4.40;;;;;;;;;;5043426;28;20526;-70
2023/03/12 10:16:25;;;;;;;7.13;4.50;;;;;;;;;;5048680;28;21297;-71
2023/03/12 10:19:16;;;;;;;6.80;4.67;;;;;;;;;;5048897;28;20521;-70
2023/03/12 10:21:50;;;;;;;9.13;5.33;;;;;;;;;;5051122;28;20461;-71
2023/03/12 10:24:32;;;;;;;6.10;5.50;;;;;;;;;;5051280;28;20458;-70
2023/03/12 10:26:58;;;;;;;7.20;5.53;;;;;;;;;;5037073;28;20442;-71
2023/03/12 10:29:25;;;;;;;5.37;4.87;;;;;;;;;;5039377;28;20810;-71
2023/03/12 10:31:54;;;;;;;6.30;4.90;;;;;;;;;;5042279;28;20830;-71
2023/03/12 10:34:28;;;;;;;7.80;5.57;;;;;;;;;;5042181;28;20462;-71
2023/03/12 10:36:57;;;;;;;9.53;5.87;;;;;;;;;;5041601;28;20443;-71
2023/03/12 10:39:23;;;;;;;7.27;4.70;;;;;;;;;;5044256;28;20434;-71
2023/03/12 10:41:48;;;;;;;6.90;6.20;;;;;;;;;;5043670;28;20507;-71
2023/03/12 10:44:21;;;;;;;6.70;6.00;;;;;;;;;;5049517;28;20214;-70
2023/03/12 10:46:55;;;;;;;9.47;6.37;;;;;;;;;;5041303;28;20266;-70
2023/03/12 10:49:20;;;;;;;8.07;6.03;;;;;;;;;;5034468;28;20428;-71
2023/03/12 10:51:53;;;;;;;6.47;5.87;;;;;;;;;;5040580;28;20503;-71
2023/03/12 10:54:25;;;;;;;7.70;6.43;;;;;;;;;;5042510;28;20219;-71
2023/03/12 10:56:51;;;;;;;7.20;5.87;;;;;;;;;;5020961;28;20438;-70
2023/03/12 10:59:20;;;;;;;6.43;5.70;;;;;;;;;;5035149;28;20499;-70
2023/03/12 11:01:47;;;;;;;6.00;5.40;;;;;;;;;;5033516;28;20644;-70
2023/03/12 11:04:22;;;;;;;6.67;5.40;;;;;;;;;;5035303;28;20459;-70
2023/03/12 11:07:14;;;;;;;6.37;5.13;;;;;;;;;;5037234;28;20433;-70
2023/03/12 11:09:39;;;;;;;7.30;5.10;;;;;;;;;;5026538;28;20500;-71
2023/03/12 11:12:25;;;;;;;6.07;5.47;;;;;;;;;;5038764;28;21121;-71
2023/03/12 11:14:50;;;;;;;9.17;4.83;;;;;;;;;;5040762;28;20192;-71
2023/03/12 11:17:20;;;;;;;7.37;4.70;;;;;;;;;;5035119;28;20441;-73
2023/03/12 11:19:45;;;;;;;5.43;4.70;;;;;;;;;;5043858;28;20594;-73
2023/03/12 11:22:14;;;;;;;6.10;5.00;;;;;;;;;;5040747;28;20521;-73
2023/03/12 11:24:58;;;;;;;5.27;4.77;;;;;;;;;;5030238;28;20644;-71
2023/03/12 11:27:41;;;;;;;6.00;4.60;;;;;;;;;;5038863;28;20442;-70
2023/03/12 11:30:11;;;;;;;5.73;5.13;;;;;;;;;;5052702;28;20438;-72
2023/03/12 11:32:37;;;;;;;6.60;5.30;;;;;;;;;;5052492;28;20540;-71
2023/03/12 11:35:08;;;;;;;5.63;4.60;;;;;;;;;;5049160;28;20515;-72
2023/03/12 11:37:39;;;;;;;5.93;5.43;;;;;;;;;;5025282;28;20442;-71
2023/03/12 11:40:08;;;;;;;6.07;5.30;;;;;;;;;;5031374;28;20434;-70
2023/03/12 11:42:37;;;;;;;7.13;6.23;;;;;;;;;;5045517;28;20465;-70
2023/03/12 11:45:08;;;;;;;7.03;4.90;;;;;;;;;;5047830;28;20455;-70
2023/03/12 11:47:52;;;;;;;6.60;5.27;;;;;;;;;;5044812;28;20442;-70
2023/03/12 11:50:26;;;;;;;6.23;5.60;;;;;;;;;;5043427;28;20459;-70
2023/03/12 11:53:02;;;;;;;6.60;5.90;;;;;;;;;;5039592;28;20473;-71
2023/03/12 11:55:32;;;;;;;6.80;6.10;;;;;;;;;;5042637;28;20563;-70
2023/03/12 11:58:11;;;;;;;5.90;5.40;;;;;;;;;;5041749;28;20808;-71
2023/03/12 12:00:47;;;;;;;6.40;5.67;;;;;;;;;;5047824;28;20474;-70
2023/03/12 12:03:12;;;;;;;7.73;6.63;;;;;;;;;;5040815;28;20468;-70
2023/03/12 12:05:40;;;;;;;8.90;6.80;;;;;;;;;;5045015;28;20932;-71
2023/03/12 12:08:22;;;;;;;6.60;6.00;;;;;;;;;;5030786;28;20504;-71
2023/03/12 12:10:52;;;;;;;8.13;6.97;;;;;;;;;;5033597;28;21357;-70
2023/03/12 12:13:17;;;;;;;6.80;6.20;;;;;;;;;;5043291;28;20957;-71
2023/03/12 12:16:01;;;;;;;9.77;6.50;;;;;;;;;;5034712;28;20442;-71
2023/03/12 12:18:34;;;;;;;7.83;7.07;;;;;;;;;;5033105;28;20659;-71
2023/03/12 12:21:23;;;;;;;8.33;7.37;;;;;;;;;;5030159;28;20539;-72
2023/03/12 12:23:48;;;;;;;8.07;7.27;;;;;;;;;;5032382;28;20442;-72
2023/03/12 12:26:36;;;;;;;9.73;8.30;;;;;;;;;;5045901;28;20455;-72
2023/03/12 12:29:17;;;;;;;9.90;8.40;;;;;;;;;;5039672;28;20196;-72
2023/03/12 12:31:49;;;;;;;9.17;8.27;;;;;;;;;;5038605;28;20810;-72
2023/03/12 12:34:33;;;;;;;11.40;8.90;;;;;;;;;;5029336;28;20450;-72
2023/03/12 12:37:09;;;;;;;8.80;7.90;;;;;;;;;;5030271;28;20430;-70
2023/03/12 12:39:37;;;;;;;10.40;8.40;;;;;;;;;;5036293;28;20432;-72
2023/03/12 12:42:04;;;;;;;10.50;9.47;;;;;;;;;;5037073;28;20522;-72
2023/03/12 12:44:34;;;;;;;9.00;8.10;;;;;;;;;;5041615;28;20480;-71
2023/03/12 12:47:04;;;;;;;10.53;8.30;;;;;;;;;;5040575;28;20441;-71
2023/03/12 12:49:38;;;;;;;10.60;9.50;;;;;;;;;;5035610;28;20433;-70
2023/03/12 12:52:06;;;;;;;11.03;8.70;;;;;;;;;;5036578;28;21016;-71
2023/03/12 12:54:36;;;;;;;10.43;9.33;;;;;;;;;;5045465;28;20971;-71
2023/03/12 12:57:02;;;;;;;12.17;9.20;;;;;;;;;;5041310;28;20451;-69
2023/03/12 12:59:27;;;;;;;9.50;8.60;;;;;;;;;;5037454;28;21619;-69
2023/03/12 13:01:54;;;;;;;9.50;8.60;;;;;;;;;;5029200;28;20223;-69
2023/03/12 13:04:23;;;;;;;10.30;9.20;;;;;;;;;;5024813;28;21455;-70
2023/03/12 13:06:54;;;;;;;12.40;10.90;;;;;;;;;;5040293;28;20920;-70
2023/03/12 13:09:21;;;;;;;12.07;9.97;;;;;;;;;;5039645;28;20465;-69
2023/03/12 13:11:47;;;;;;;11.83;10.73;;;;;;;;;;5039144;28;20465;-69
2023/03/12 13:14:14;;;;;;;10.93;9.83;;;;;;;;;;5035954;28;21057;-69
2023/03/12 13:16:44;;;;;;;11.10;10.00;;;;;;;;;;5044468;28;20485;-69
2023/03/12 13:19:12;;;;;;;12.90;10.60;;;;;;;;;;5032805;28;20956;-69
2023/03/12 13:21:38;;;;;;;13.00;11.20;;;;;;;;;;5037910;28;20975;-69
2023/03/12 13:24:15;;;;;;;11.50;10.30;;;;;;;;;;5038465;28;20461;-69
2023/03/12 13:26:47;;;;;;;12.23;10.97;;;;;;;;;;5047947;28;20557;-70
2023/03/12 13:29:20;;;;;;;13.80;11.40;;;;;;;;;;5036212;28;20429;-69
2023/03/12 13:31:46;;;;;;;10.67;9.60;;;;;;;;;;5046559;28;20839;-70
2023/03/12 13:34:17;;;;;;;12.47;10.00;;;;;;;;;;5045971;28;20454;-70
2023/03/12 13:36:52;;;;;;;13.53;10.57;;;;;;;;;;5039121;28;20257;-70
2023/03/12 13:39:26;;;;;;;14.40;10.70;;;;;;;;;;5041991;28;20441;-70
2023/03/12 13:41:55;;;;;;;10.70;9.77;;;;;;;;;;5041657;28;20970;-69
2023/03/12 13:44:26;;;;;;;12.97;10.97;;;;;;;;;;5036222;28;20473;-69
2023/03/12 13:47:02;;;;;;;11.73;10.53;;;;;;;;;;5039301;28;20426;-70
2023/03/12 13:49:35;;;;;;;12.10;10.33;;;;;;;;;;5044009;28;20479;-70
2023/03/12 13:52:13;;;;;;;12.53;11.23;;;;;;;;;;5039968;28;21064;-70
2023/03/12 13:54:43;;;;;;;12.67;11.37;;;;;;;;;;5041840;28;20975;-70
2023/03/12 13:57:22;;;;;;;11.73;10.53;;;;;;;;;;5036893;28;20464;-70
2023/03/12 13:59:49;;;;;;;12.70;11.40;;;;;;;;;;5036195;28;20500;-70
2023/03/12 14:02:24;;;;;;;13.10;11.30;;;;;;;;;;5043749;28;20465;-69
2023/03/12 14:04:49;;;;;;;12.27;10.90;;;;;;;;;;5041884;28;20435;-69
2023/03/12 14:07:14;;;;;;;12.33;11.00;;;;;;;;;;5035117;28;20742;-70
2023/03/12 14:09:51;;;;;;;13.20;11.87;;;;;;;;;;5041233;28;20184;-69
2023/03/12 14:12:36;;;;;;;13.37;11.10;;;;;;;;;;5033395;28;20182;-70
2023/03/12 14:15:02;;;;;;;16.93;15.07;;;;;;;;;;5040704;28;20430;-70
2023/03/12 14:17:28;;;;;;;14.23;12.60;;;;;;;;;;5039490;28;20436;-69
2023/03/12 14:20:09;;;;;;;12.20;10.90;;;;;;;;;;5044299;28;20183;-71
2023/03/12 14:22:36;;;;;;;12.70;11.37;;;;;;;;;;5038960;28;20823;-71
2023/03/12 14:25:22;;;;;;;19.07;12.97;;;;;;;;;;5044913;28;20512;-70
2023/03/12 14:27:47;;;;;;;16.40;12.53;;;;;;;;;;5040313;28;20442;-69
2023/03/12 14:30:19;;;;;;;20.37;15.03;;;;;;;;;;5039169;28;20435;-70
2023/03/12 14:32:46;;;;;;;14.90;12.13;;;;;;;;;;5042309;28;20249;-69
2023/03/12 14:35:11;;;;;;;12.03;10.83;;;;;;;;;;5046619;28;20438;-69
2023/03/12 14:37:43;;;;;;;16.47;12.20;;;;;;;;;;5041988;28;20430;-70
2023/03/12 14:40:28;;;;;;;16.07;11.53;;;;;;;;;;5037182;28;20245;-70
2023/03/12 14:42:54;;;;;;;12.70;11.47;;;;;;;;;;5042789;28;20493;-69
2023/03/12 14:45:21;;;;;;;14.87;11.63;;;;;;;;;;5022979;28;20490;-69